Time;durP1;ratioP1;P1;durP2;ratioP2;P2;SDS_P1;SDS_P2;PMS_P1;PMS_P2;Temp;Humidity;BMP_temperature;BMP_pressure;BME280_temperature;BME280_humidity;BME280_pressure;Samples;Min_cycle;Max_cycle;Signal;HPM_P1;HPM_P2
2022/11/12 00:00:11;;;;;;;11.45;7.63;;;;;;;7.61;86.87;101615.41;5870872;23;20031;-88
2022/11/12 00:02:57;;;;;;;15.13;8.80;;;;;;;7.60;87.19;101618.97;5934246;23;20027;-89
2022/11/12 00:05:44;;;;;;;14.68;8.20;;;;;;;7.57;87.23;101617.31;5873093;23;20039;-90
2022/11/12 00:08:29;;;;;;;16.60;7.80;;;;;;;7.51;87.86;101608.84;5913584;23;20091;-88
2022/11/12 00:11:14;;;;;;;15.95;8.13;;;;;;;7.47;87.81;101608.13;5912387;23;20030;-88
2022/11/12 00:14:00;;;;;;;11.40;8.27;;;;;;;7.44;87.85;101602.97;5935593;23;20019;-89
2022/11/12 00:16:45;;;;;;;16.50;8.27;;;;;;;7.43;87.93;101600.41;5890880;23;20024;-88
2022/11/12 00:19:31;;;;;;;17.27;8.25;;;;;;;7.44;87.78;101600.34;5917617;23;20028;-89
2022/11/12 00:22:16;;;;;;;15.77;8.85;;;;;;;7.35;87.21;101603.41;5935410;23;20030;-89
2022/11/12 00:25:02;;;;;;;12.40;7.93;;;;;;;7.35;87.25;101604.28;5913570;23;20086;-88
2022/11/12 00:27:48;;;;;;;12.50;8.30;;;;;;;7.34;87.47;101612.28;5889879;23;20027;-88
2022/11/12 00:30:36;;;;;;;14.20;8.18;;;;;;;7.29;86.52;101601.91;5892657;23;20030;-89
2022/11/12 00:33:21;;;;;;;12.15;8.32;;;;;;;7.27;86.60;101598.47;5854351;23;20030;-88
2022/11/12 00:36:07;;;;;;;14.07;9.18;;;;;;;7.26;86.89;101601.19;5955448;23;20019;-89
2022/11/12 00:38:53;;;;;;;11.90;8.70;;;;;;;7.26;86.98;101606.50;5914035;23;20068;-88
2022/11/12 00:41:38;;;;;;;16.80;9.77;;;;;;;7.25;87.47;101604.75;5932555;23;20156;-88
2022/11/12 00:44:24;;;;;;;14.32;8.18;;;;;;;7.21;87.06;101604.06;5934185;23;20019;-89
2022/11/12 00:47:09;;;;;;;11.82;7.88;;;;;;;7.21;87.33;101597.91;5894893;23;20128;-88
2022/11/12 00:49:54;;;;;;;16.58;9.43;;;;;;;7.18;87.99;101601.56;5894192;23;20019;-88
2022/11/12 00:52:40;;;;;;;15.13;9.30;;;;;;;7.14;88.36;101608.75;5870400;23;20099;-89
2022/11/12 00:55:25;;;;;;;13.52;8.50;;;;;;;7.15;87.76;101605.19;5911612;23;20039;-88
2022/11/12 00:58:11;;;;;;;12.88;8.45;;;;;;;7.15;87.60;101610.47;5850378;23;20055;-89
2022/11/12 01:00:56;;;;;;;10.45;7.45;;;;;;;7.17;87.61;101621.84;5914076;23;20030;-89
2022/11/12 01:03:42;;;;;;;12.68;8.65;;;;;;;7.20;87.58;101623.50;5934802;23;20036;-88
2022/11/12 01:06:27;;;;;;;18.65;8.95;;;;;;;7.16;87.34;101627.19;5910171;23;20102;-91
2022/11/12 01:09:15;;;;;;;19.25;8.30;;;;;;;7.12;86.80;101615.91;5938752;23;20043;-89
2022/11/12 01:12:10;;;;;;;20.58;9.20;;;;;;;7.04;86.82;101618.00;5926628;23;20104;-88
2022/11/12 01:14:55;;;;;;;12.18;7.70;;;;;;;7.01;86.72;101618.16;5890936;23;20019;-90
2022/11/12 01:17:40;;;;;;;12.30;7.80;;;;;;;7.05;86.53;101617.09;5930936;23;20035;-89
2022/11/12 01:20:26;;;;;;;14.15;8.23;;;;;;;7.08;86.25;101610.84;5932771;23;20030;-89
2022/11/12 01:23:11;;;;;;;20.63;7.78;;;;;;;6.92;86.71;101600.06;5869385;23;20024;-90
2022/11/12 01:25:56;;;;;;;10.82;7.20;;;;;;;6.98;86.66;101606.88;5932378;23;20553;-89
2022/11/12 01:28:42;;;;;;;12.98;8.23;;;;;;;7.00;86.48;101608.53;5887494;23;20313;-89
2022/11/12 01:31:35;;;;;;;12.93;8.65;;;;;;;6.96;86.45;101601.66;5955371;23;20016;-89
2022/11/12 01:34:21;;;;;;;13.55;7.75;;;;;;;6.95;87.10;101602.59;5958797;23;20035;-89
2022/11/12 01:37:06;;;;;;;13.43;7.28;;;;;;;6.95;86.77;101603.44;5953890;23;20020;-89
2022/11/12 01:39:51;;;;;;;14.23;8.95;;;;;;;6.94;86.89;101600.88;5974534;23;20046;-88
2022/11/12 01:42:38;;;;;;;12.45;7.97;;;;;;;6.97;87.00;101598.09;5912062;23;20357;-88
2022/11/12 01:45:24;;;;;;;11.50;7.75;;;;;;;6.97;87.40;101598.09;5910264;23;20020;-89
2022/11/12 01:48:25;;;;;;;28.27;8.65;;;;;;;6.79;88.13;101598.91;5909599;23;20144;-88
2022/11/12 01:51:12;;;;;;;15.15;7.30;;;;;;;6.93;88.71;101599.16;5897072;23;20027;-89
2022/11/12 01:54:00;;;;;;;43.35;9.02;;;;;;;6.88;89.49;101594.09;5977329;23;20028;-88
2022/11/12 01:56:46;;;;;;;24.67;8.30;;;;;;;6.92;90.22;101595.69;5913759;23;20031;-89
2022/11/12 01:59:37;;;;;;;42.17;11.30;;;;;;;6.93;89.66;101600.03;5894030;23;20124;-89
2022/11/12 02:02:23;;;;;;;27.77;8.02;;;;;;;6.99;89.01;101604.16;5914343;23;20024;-90
2022/11/12 02:05:09;;;;;;;15.02;7.75;;;;;;;6.95;89.11;101602.59;5909894;23;20086;-89
2022/11/12 02:07:56;;;;;;;17.17;8.43;;;;;;;6.85;89.10;101593.38;5955464;23;20121;-89
2022/11/12 02:10:41;;;;;;;14.38;8.95;;;;;;;6.91;88.66;101588.66;5935278;23;20024;-89
2022/11/12 02:16:33;;;;;;;;;;;;;;;6.67;89.35;101593.25;5878098;23;20019;-90
2022/11/12 02:19:19;;;;;;;18.40;7.75;;;;;;;6.84;88.70;101595.13;5908532;23;19926;-88
2022/11/12 02:22:04;;;;;;;15.52;8.20;;;;;;;6.83;88.66;101592.59;5911401;23;20024;-89
2022/11/12 02:24:50;;;;;;;25.80;7.35;;;;;;;6.88;87.97;101595.88;5867958;23;20030;-88
2022/11/12 02:27:35;;;;;;;13.25;7.57;;;;;;;6.87;87.68;101594.16;5933133;23;20508;-89
2022/11/12 02:30:35;;;;;;;10.55;7.35;;;;;;;6.76;87.08;101589.34;5934342;23;20016;-87
2022/11/12 02:33:20;;;;;;;18.42;7.32;;;;;;;6.82;87.79;101590.84;5891670;23;20040;-88
2022/11/12 02:36:05;;;;;;;11.93;6.95;;;;;;;6.84;87.66;101592.50;5934468;23;20027;-87
2022/11/12 02:38:51;;;;;;;10.93;7.30;;;;;;;6.82;87.89;101591.72;5912957;23;20372;-88
2022/11/12 02:41:36;;;;;;;13.95;6.93;;;;;;;6.85;87.82;101581.03;5892577;23;20027;-89
2022/11/12 02:44:22;;;;;;;15.93;7.47;;;;;;;6.83;87.27;101589.94;5933097;23;20038;-88
2022/11/12 02:47:07;;;;;;;16.73;7.25;;;;;;;6.78;88.07;101581.38;5917204;23;20046;-88
2022/11/12 02:49:53;;;;;;;31.98;8.05;;;;;;;6.79;88.40;101578.66;5936699;23;20023;-88
2022/11/12 02:52:41;;;;;;;37.97;8.75;;;;;;;6.82;88.29;101573.25;5915115;23;20027;-90
2022/11/12 02:55:27;;;;;;;14.35;6.93;;;;;;;6.70;88.69;101572.00;5894395;23;20392;-88
2022/11/12 02:58:12;;;;;;;19.88;6.78;;;;;;;6.79;87.96;101572.50;5911679;23;20037;-89
2022/11/12 03:00:59;;;;;;;16.45;7.60;;;;;;;6.78;88.17;101571.66;5956946;23;20107;-88
2022/11/12 03:03:44;;;;;;;23.20;8.18;;;;;;;6.71;88.94;101570.22;5913502;23;20028;-88
2022/11/12 03:06:29;;;;;;;26.73;8.65;;;;;;;6.71;88.82;101573.72;5957596;23;20040;-88
2022/11/12 03:09:14;;;;;;;18.73;7.00;;;;;;;6.69;89.50;101567.66;5865551;23;20043;-89
2022/11/12 03:12:00;;;;;;;18.83;7.88;;;;;;;6.77;89.56;101577.88;5938676;23;20031;-88
2022/11/12 03:14:45;;;;;;;13.90;7.10;;;;;;;6.75;89.58;101571.81;5891567;23;20031;-88
2022/11/12 03:17:33;;;;;;;24.90;8.25;;;;;;;6.77;89.13;101583.16;5936911;23;20034;-87
2022/11/12 03:20:19;;;;;;;31.13;7.75;;;;;;;6.73;89.87;101581.56;5931734;23;20115;-89
2022/11/12 03:23:07;;;;;;;10.60;6.80;;;;;;;6.80;89.15;101590.94;5951297;23;20083;-89
2022/11/12 03:25:53;;;;;;;9.52;6.60;;;;;;;6.82;89.42;101585.56;5933874;23;20051;-88
2022/11/12 03:28:39;;;;;;;9.13;6.43;;;;;;;6.82;89.24;101578.53;5872483;23;20063;-88
2022/11/12 03:31:24;;;;;;;12.55;7.15;;;;;;;6.83;89.35;101584.66;5937024;23;20026;-88
2022/11/12 03:34:10;;;;;;;8.25;6.00;;;;;;;6.77;89.10;101585.81;5954676;23;20345;-88
2022/11/12 03:36:56;;;;;;;7.93;6.93;;;;;;;6.80;88.96;101584.81;5918020;23;20027;-89
2022/11/12 03:39:41;;;;;;;13.68;6.10;;;;;;;6.70;89.26;101582.56;5891986;23;20031;-90
2022/11/12 03:42:27;;;;;;;8.45;6.07;;;;;;;6.74;89.08;101578.00;5933212;23;20020;-88
2022/11/12 03:45:13;;;;;;;6.78;6.07;;;;;;;6.76;88.67;101578.78;5892367;23;20024;-89
2022/11/12 03:47:58;;;;;;;6.78;5.72;;;;;;;6.74;88.31;101575.34;5932627;23;20032;-89
2022/11/12 03:50:44;;;;;;;7.97;5.85;;;;;;;6.73;88.05;101579.78;5875397;23;20655;-89
2022/11/12 03:53:29;;;;;;;7.93;5.65;;;;;;;6.73;87.93;101576.28;5931852;23;20034;-88
2022/11/12 03:56:15;;;;;;;7.40;5.57;;;;;;;6.66;87.61;101575.69;5870848;23;20031;-88
2022/11/12 03:59:00;;;;;;;8.80;6.50;;;;;;;6.69;87.79;101574.69;5933403;23;20069;-88
2022/11/12 04:01:46;;;;;;;8.20;6.40;;;;;;;6.68;87.95;101573.84;5935857;23;20035;-89
2022/11/12 04:10:42;;;;;;;8.27;5.88;;;;;;;6.62;88.16;101568.84;5915770;23;20039;-88
2022/11/12 04:13:27;;;;;;;12.60;7.20;;;;;;;6.64;88.08;101574.06;5912658;23;20044;-89
2022/11/12 04:22:26;;;;;;;16.08;6.57;;;;;;;6.61;87.79;101559.19;5902697;23;20031;-88
2022/11/12 04:28:15;;;;;;;;;;;;;;;6.39;85.69;101575.13;5904384;23;20023;-90
2022/11/12 04:31:01;;;;;;;9.80;6.28;;;;;;;6.57;86.29;101575.28;5915048;23;19922;-87
2022/11/12 04:33:47;;;;;;;12.48;7.45;;;;;;;6.57;85.81;101576.13;5951837;23;20028;-88
2022/11/12 04:36:32;;;;;;;11.15;7.13;;;;;;;6.53;85.73;101564.81;5934395;23;20123;-89
2022/11/12 04:39:17;;;;;;;11.68;7.22;;;;;;;6.57;85.82;101576.13;5955033;23;20030;-88
2022/11/12 04:45:09;;;;;;;9.88;6.95;;;;;;;6.44;85.93;101574.94;5912289;23;20039;-87
2022/11/12 04:47:54;;;;;;;12.30;7.00;;;;;;;6.47;86.23;101573.03;5936345;23;20024;-89
2022/11/12 04:50:41;;;;;;;11.73;7.65;;;;;;;6.46;86.09;101578.34;5888921;23;20445;-89
2022/11/12 04:53:28;;;;;;;9.98;6.15;;;;;;;6.42;86.13;101579.44;5914657;23;20521;-89
2022/11/12 04:56:14;;;;;;;11.40;7.38;;;;;;;6.42;86.16;101577.63;5889882;23;20019;-89
2022/11/12 04:58:59;;;;;;;13.75;6.90;;;;;;;6.45;86.07;101580.13;5909248;23;20019;-89
2022/11/12 05:01:47;;;;;;;12.23;7.32;;;;;;;6.43;85.89;101578.50;5913059;23;20448;-88
2022/11/12 05:04:32;;;;;;;13.32;7.13;;;;;;;6.44;86.41;101582.88;5936855;23;20461;-88
2022/11/12 05:07:17;;;;;;;12.02;7.05;;;;;;;6.44;86.63;101589.00;5938830;23;20024;-89
2022/11/12 05:10:03;;;;;;;8.68;6.38;;;;;;;6.39;86.60;101595.41;5872354;23;20073;-89
2022/11/12 05:12:49;;;;;;;14.35;7.05;;;;;;;6.38;86.43;101596.31;5888821;23;20019;-90
2022/11/12 05:15:34;;;;;;;9.43;6.53;;;;;;;6.39;86.51;101596.25;5872022;23;20028;-88
2022/11/12 05:18:20;;;;;;;9.43;6.55;;;;;;;6.37;86.39;101592.81;5930828;23;21489;-88
2022/11/12 05:22:04;;;;;;;10.35;6.95;;;;;;;6.34;86.67;101595.59;5890270;23;20031;-89
2022/11/12 05:24:11;;;;;;;8.63;6.55;;;;;;;6.33;86.33;101591.22;5895867;23;20019;-88
2022/11/12 05:27:18;;;;;;;10.07;7.40;;;;;;;6.34;85.97;101582.41;5851230;23;20031;-88
2022/11/12 05:30:04;;;;;;;10.57;6.68;;;;;;;6.40;85.69;101576.00;5932050;23;20095;-89
2022/11/12 05:32:49;;;;;;;8.52;6.38;;;;;;;6.36;85.60;101584.94;5955260;23;20385;-89
2022/11/12 05:35:35;;;;;;;9.43;6.38;;;;;;;6.36;85.63;101587.59;5907699;23;20412;-90
2022/11/12 05:38:20;;;;;;;9.75;6.90;;;;;;;6.38;85.38;101591.88;5933911;23;20019;-90
2022/11/12 05:41:06;;;;;;;10.80;7.40;;;;;;;6.33;85.89;101599.13;5907883;23;20453;-89
2022/11/12 05:43:51;;;;;;;9.50;7.55;;;;;;;6.38;86.16;101605.06;5915297;23;20098;-89
2022/11/12 05:46:36;;;;;;;11.70;7.22;;;;;;;6.30;86.29;101605.41;5910435;23;20508;-89
2022/11/12 05:49:22;;;;;;;11.20;8.10;;;;;;;6.37;85.96;101605.16;5935850;23;20042;-89
2022/11/12 05:52:07;;;;;;;9.13;7.10;;;;;;;6.33;86.15;101606.19;5886291;23;20077;-90
2022/11/12 05:54:52;;;;;;;10.10;6.65;;;;;;;6.29;86.53;101600.19;5933668;23;20035;-89
2022/11/12 05:57:37;;;;;;;9.77;6.43;;;;;;;6.28;86.18;101593.19;5869448;23;20456;-90
2022/11/12 06:00:23;;;;;;;7.43;5.60;;;;;;;6.26;85.77;101595.91;5955079;23;20023;-89
2022/11/12 06:03:09;;;;;;;9.15;5.80;;;;;;;6.25;85.80;101599.47;5931552;23;20102;-88
2022/11/12 06:05:54;;;;;;;7.50;5.55;;;;;;;6.22;86.00;101606.66;5953382;23;20016;-89
2022/11/12 06:08:40;;;;;;;8.40;5.65;;;;;;;6.24;85.99;101610.09;5912966;23;20050;-89
2022/11/12 06:11:25;;;;;;;8.07;6.28;;;;;;;6.26;85.53;101603.81;5936872;23;20071;-89
2022/11/12 06:14:10;;;;;;;7.93;5.57;;;;;;;6.22;85.57;101606.66;5868414;23;20088;-89
2022/11/12 06:16:56;;;;;;;9.77;6.10;;;;;;;6.24;85.35;101605.66;5934966;23;20019;-89
2022/11/12 06:19:41;;;;;;;6.75;5.28;;;;;;;6.20;85.40;101606.69;5890679;23;20032;-90
2022/11/12 06:22:26;;;;;;;7.57;5.70;;;;;;;6.13;85.42;101610.53;5935918;23;20027;-89
2022/11/12 06:25:12;;;;;;;7.40;5.03;;;;;;;6.14;85.65;101611.41;5911574;23;20508;-89
2022/11/12 06:27:57;;;;;;;8.90;5.32;;;;;;;6.14;85.53;101614.03;5914005;23;20051;-89
2022/11/12 06:30:43;;;;;;;9.18;5.28;;;;;;;6.14;85.54;101608.75;5895571;23;20024;-88
2022/11/12 06:33:28;;;;;;;7.78;5.72;;;;;;;6.11;85.38;101620.28;5896787;23;20394;-88
2022/11/12 06:36:16;;;;;;;6.85;5.13;;;;;;;6.10;85.29;101618.56;5915402;23;20030;-90
2022/11/12 06:39:01;;;;;;;7.13;5.47;;;;;;;6.20;85.19;101614.63;5973769;23;20047;-89
2022/11/12 06:41:46;;;;;;;8.75;6.13;;;;;;;6.12;85.33;101624.63;5894099;23;20027;-89
2022/11/12 06:44:32;;;;;;;7.53;5.95;;;;;;;6.11;85.38;101625.56;5915415;23;20067;-89
2022/11/12 06:47:17;;;;;;;7.55;5.75;;;;;;;6.14;85.32;101620.16;5916338;23;20016;-90
2022/11/12 06:50:03;;;;;;;8.80;5.88;;;;;;;6.08;85.02;101618.63;5912840;23;20432;-89
2022/11/12 06:52:48;;;;;;;12.23;7.20;;;;;;;6.05;85.06;101624.00;5938639;23;20322;-89
2022/11/12 06:55:34;;;;;;;12.88;8.00;;;;;;;6.09;85.51;101627.41;5896111;23;20099;-89
2022/11/12 06:58:19;;;;;;;11.77;7.72;;;;;;;6.04;85.21;101624.09;5934497;23;20019;-89
2022/11/12 07:01:10;;;;;;;12.82;7.78;;;;;;;6.01;85.18;101622.44;5889610;23;20107;-90
2022/11/12 07:03:56;;;;;;;11.43;7.22;;;;;;;6.00;86.13;101612.78;5894129;23;20020;-90
2022/11/12 07:06:42;;;;;;;10.50;7.40;;;;;;;6.06;85.88;101612.56;5932727;23;20081;-89
2022/11/12 07:09:27;;;;;;;11.43;7.32;;;;;;;6.11;85.58;101614.13;5893363;23;20449;-89
2022/11/12 07:12:12;;;;;;;9.23;6.50;;;;;;;6.10;85.61;101621.19;5913007;23;20030;-88
2022/11/12 07:14:58;;;;;;;9.18;6.35;;;;;;;6.16;85.49;101622.75;5934765;23;20027;-89
2022/11/12 07:17:45;;;;;;;10.93;6.75;;;;;;;6.17;85.75;101614.75;5936236;23;20034;-89
2022/11/12 07:20:30;;;;;;;10.93;7.78;;;;;;;6.23;85.53;101618.91;5909811;23;20030;-89
2022/11/12 07:23:15;;;;;;;12.43;8.13;;;;;;;6.18;85.73;101616.50;5937380;23;20024;-89
2022/11/12 07:26:02;;;;;;;9.27;7.38;;;;;;;6.21;86.00;101619.00;5891819;23;20086;-88
2022/11/12 07:28:49;;;;;;;8.77;6.57;;;;;;;6.32;85.66;101618.53;5911792;23;20333;-89
2022/11/12 07:31:34;;;;;;;9.45;6.93;;;;;;;6.28;85.94;101617.81;5897551;23;20330;-88
2022/11/12 07:34:19;;;;;;;9.30;6.40;;;;;;;6.34;86.15;101621.13;5868530;23;20020;-89
2022/11/12 07:37:05;;;;;;;9.93;7.30;;;;;;;6.33;86.33;101617.59;5935654;23;20027;-83
2022/11/12 07:39:50;;;;;;;10.57;6.47;;;;;;;6.31;86.77;101608.91;5934860;23;20537;-85
2022/11/12 07:42:35;;;;;;;9.07;6.63;;;;;;;6.37;86.56;101613.06;5953995;23;20030;-84
2022/11/12 07:45:21;;;;;;;6.43;4.93;;;;;;;6.52;85.45;101610.63;5945845;23;20053;-84
2022/11/12 07:48:06;;;;;;;8.77;5.80;;;;;;;6.56;85.62;101616.63;5915559;23;20024;-85
2022/11/12 07:50:51;;;;;;;6.45;5.60;;;;;;;6.58;85.34;101612.13;5887838;23;20035;-83
2022/11/12 07:53:36;;;;;;;7.40;5.60;;;;;;;6.62;86.12;101619.00;5932522;23;20019;-84
2022/11/12 07:56:23;;;;;;;6.28;5.10;;;;;;;6.67;85.98;101613.53;5978377;23;20039;-84
2022/11/12 07:59:08;;;;;;;7.45;5.45;;;;;;;6.71;85.99;101610.66;5956322;23;20031;-85
2022/11/12 08:01:53;;;;;;;7.85;5.55;;;;;;;6.74;85.95;101613.19;5956835;23;20102;-85
2022/11/12 08:04:39;;;;;;;6.72;5.40;;;;;;;6.84;85.57;101613.63;5932368;24;20024;-84
2022/11/12 08:07:24;;;;;;;7.10;5.30;;;;;;;6.84;85.90;101618.06;5956772;23;20027;-85
2022/11/12 08:10:10;;;;;;;9.65;5.10;;;;;;;6.88;85.44;101623.13;5933969;23;20019;-84
2022/11/12 08:12:55;;;;;;;6.35;5.22;;;;;;;6.91;84.56;101622.13;5912893;23;20052;-82
2022/11/12 08:15:41;;;;;;;5.85;4.78;;;;;;;6.89;84.64;101614.28;5958907;23;20035;-83
2022/11/12 08:18:26;;;;;;;6.68;5.72;;;;;;;6.90;83.94;101610.72;5933033;23;20085;-84
2022/11/12 08:21:14;;;;;;;6.97;4.90;;;;;;;6.93;84.12;101621.16;5955852;23;20709;-82
2022/11/12 08:23:59;;;;;;;6.78;4.97;;;;;;;6.91;84.18;101611.56;5916581;23;20031;-82
2022/11/12 08:26:44;;;;;;;7.13;5.13;;;;;;;6.92;83.72;101608.88;5864500;23;20504;-82
2022/11/12 08:29:30;;;;;;;6.15;5.00;;;;;;;6.97;84.36;101613.94;5934504;23;20094;-84
2022/11/12 08:32:15;;;;;;;9.48;5.10;;;;;;;7.01;83.96;101607.59;5931491;23;20106;-84
2022/11/12 08:35:00;;;;;;;6.00;4.78;;;;;;;7.03;84.02;101612.81;5934404;23;20040;-84
2022/11/12 08:37:45;;;;;;;6.43;5.03;;;;;;;7.05;84.09;101611.81;5930269;23;20390;-83
2022/11/12 08:40:31;;;;;;;5.28;4.65;;;;;;;7.05;83.79;101600.41;5953663;23;20034;-84
2022/11/12 08:43:17;;;;;;;7.45;4.78;;;;;;;7.09;84.42;101605.47;5932612;23;20034;-84
2022/11/12 08:46:03;;;;;;;6.25;4.88;;;;;;;7.14;84.46;101598.19;5890372;23;20034;-85
2022/11/12 08:48:48;;;;;;;6.28;4.80;;;;;;;7.20;84.82;101593.53;5958138;23;20035;-83
2022/11/12 08:51:33;;;;;;;7.05;5.40;;;;;;;7.23;84.74;101598.72;5954744;23;20034;-84
2022/11/12 08:54:19;;;;;;;6.32;4.78;;;;;;;7.27;84.77;101589.69;5956678;23;20139;-84
2022/11/12 08:57:04;;;;;;;6.72;4.90;;;;;;;7.29;84.92;101591.34;5932799;23;20096;-85
2022/11/12 08:59:49;;;;;;;7.82;5.38;;;;;;;7.29;85.37;101588.69;5933233;23;20030;-84
2022/11/12 09:02:35;;;;;;;8.20;5.53;;;;;;;7.34;85.42;101585.84;5873714;23;20093;-84
2022/11/12 09:05:20;;;;;;;5.80;5.10;;;;;;;7.38;85.20;101582.13;5888933;23;20081;-84
2022/11/12 09:08:08;;;;;;;7.53;5.47;;;;;;;7.42;85.50;101588.13;5913246;23;20032;-84
2022/11/12 09:10:56;;;;;;;7.90;5.60;;;;;;;7.43;85.75;101585.41;5910891;23;20090;-85
2022/11/12 09:13:41;;;;;;;5.50;4.93;;;;;;;7.45;85.92;101580.03;5890894;23;20263;-84
2022/11/12 09:16:27;;;;;;;5.50;4.90;;;;;;;7.50;85.59;101576.25;5890048;23;20103;-84
2022/11/12 09:19:12;;;;;;;6.70;5.00;;;;;;;7.55;85.99;101579.53;5892679;23;20115;-85
2022/11/12 09:21:57;;;;;;;8.32;5.00;;;;;;;7.59;86.00;101583.75;5977001;23;20020;-85
2022/11/12 09:24:43;;;;;;;7.70;4.93;;;;;;;7.65;86.05;101581.75;5892542;23;20031;-85
2022/11/12 09:27:28;;;;;;;7.28;5.25;;;;;;;7.70;86.09;101585.88;5888615;23;20160;-90
2022/11/12 09:30:14;;;;;;;8.63;4.70;;;;;;;7.73;85.83;101575.13;5933269;23;20039;-83
2022/11/12 09:32:59;;;;;;;7.53;4.97;;;;;;;7.76;86.15;101587.34;5981649;23;20453;-90
2022/11/12 09:35:46;;;;;;;7.45;5.97;;;;;;;7.81;85.78;101582.69;5916923;23;20106;-89
2022/11/12 09:38:32;;;;;;;6.45;5.22;;;;;;;7.87;86.12;101586.84;5959826;23;20024;-87
2022/11/12 09:41:24;;;;;;;7.10;4.95;;;;;;;7.89;86.00;101591.13;5954149;23;20179;-88
2022/11/12 09:44:16;;;;;;;8.75;5.55;;;;;;;7.94;85.91;101591.75;5933221;23;20090;-87
2022/11/12 09:47:01;;;;;;;6.35;5.68;;;;;;;7.96;85.46;101579.31;5916668;23;20038;-88
2022/11/12 09:50:00;;;;;;;6.72;5.40;;;;;;;7.94;85.28;101582.97;5888516;23;20181;-87
2022/11/12 09:52:47;;;;;;;7.10;5.18;;;;;;;8.02;85.37;101586.94;5875956;23;20028;-86
2022/11/12 09:55:36;;;;;;;7.72;4.65;;;;;;;8.04;85.37;101585.06;5914833;23;20019;-85
2022/11/12 09:58:24;;;;;;;7.75;5.90;;;;;;;8.08;85.27;101579.63;5913894;23;20032;-85
2022/11/12 10:01:15;;;;;;;7.40;5.47;;;;;;;8.10;85.45;101583.91;5932763;23;20027;-85
2022/11/12 10:04:12;;;;;;;7.43;5.07;;;;;;;8.07;85.38;101584.06;5952839;23;20035;-85
2022/11/12 10:07:12;;;;;;;6.80;5.22;;;;;;;8.10;85.29;101578.63;5910373;23;20030;-85
2022/11/12 10:10:08;;;;;;;6.32;5.07;;;;;;;8.13;85.35;101574.97;5855086;23;20414;-84
2022/11/12 10:13:19;;;;;;;6.10;4.50;;;;;;;8.11;85.58;101568.88;5874726;23;20020;-83
2022/11/12 10:19:35;;;;;;;6.78;5.32;;;;;;;8.16;85.62;101575.66;5934685;23;20885;-84
2022/11/12 10:22:26;;;;;;;7.57;4.90;;;;;;;8.21;85.57;101564.84;5919917;23;20031;-85
2022/11/12 10:25:18;;;;;;;5.78;4.45;;;;;;;8.26;85.58;101573.41;5865436;23;20182;-85
2022/11/12 10:28:25;;;;;;;6.32;5.00;;;;;;;8.25;85.85;101569.91;5886741;23;20582;-84
2022/11/12 10:31:16;;;;;;;7.50;5.70;;;;;;;8.33;85.93;101573.97;5814272;24;20025;-84
2022/11/12 10:34:16;;;;;;;8.80;6.68;;;;;;;8.33;85.78;101563.38;5871098;24;20659;-85
2022/11/12 10:37:06;;;;;;;6.90;5.65;;;;;;;8.40;85.90;101559.50;5834274;24;20365;-85
2022/11/12 10:40:21;;;;;;;7.95;5.97;;;;;;;8.36;86.96;101561.41;5788762;24;20049;-85
2022/11/12 10:43:15;;;;;;;7.65;4.97;;;;;;;8.38;86.28;101556.91;5790823;24;20342;-87
2022/11/12 10:46:18;;;;;;;7.00;5.20;;;;;;;8.40;86.56;101556.88;5869695;24;20029;-86
2022/11/12 10:49:22;;;;;;;6.82;4.97;;;;;;;8.45;86.57;101558.31;5813476;24;20149;-87
2022/11/12 10:52:21;;;;;;;8.55;5.43;;;;;;;8.51;86.32;101556.28;5831534;24;20027;-86
2022/11/12 10:55:21;;;;;;;6.05;5.15;;;;;;;8.54;86.45;101540.25;5830503;24;20032;-85
2022/11/12 10:58:21;;;;;;;7.03;5.95;;;;;;;8.57;86.31;101540.06;5834107;24;20439;-85
2022/11/12 11:01:15;;;;;;;6.55;5.53;;;;;;;8.59;86.24;101543.50;5847989;24;20037;-85
2022/11/12 11:04:00;;;;;;;7.53;5.57;;;;;;;8.64;86.65;101537.03;5937000;23;20091;-85
2022/11/12 11:06:45;;;;;;;6.72;5.90;;;;;;;8.67;86.57;101536.00;5914809;23;20030;-85
2022/11/12 11:09:31;;;;;;;9.05;6.03;;;;;;;8.69;86.62;101534.97;5916886;23;20039;-86
2022/11/12 11:12:29;;;;;;;8.45;5.93;;;;;;;8.67;86.82;101536.00;5892758;23;20108;-83
2022/11/12 11:15:14;;;;;;;6.07;5.30;;;;;;;8.75;86.80;101538.25;5915425;23;20027;-87
2022/11/12 11:17:59;;;;;;;7.15;5.60;;;;;;;8.78;86.85;101532.81;5953396;23;20019;-83
2022/11/12 11:20:51;;;;;;;10.10;5.68;;;;;;;8.78;86.67;101530.16;5912821;23;20077;-84
2022/11/12 11:23:47;;;;;;;6.97;5.32;;;;;;;8.76;86.74;101534.66;5867943;24;20101;-83
2022/11/12 11:26:56;;;;;;;8.43;5.85;;;;;;;8.79;86.62;101537.16;5905343;24;20025;-84
2022/11/12 11:29:47;;;;;;;9.13;6.07;;;;;;;8.83;86.95;101531.59;5860344;24;20073;-84
2022/11/12 11:32:44;;;;;;;7.22;5.75;;;;;;;8.81;87.00;101532.63;5854219;24;20036;-83
2022/11/12 11:35:46;;;;;;;6.55;5.38;;;;;;;8.82;87.14;101527.22;5858691;24;20027;-83
2022/11/12 11:38:37;;;;;;;6.57;5.65;;;;;;;8.83;87.07;101522.81;5837143;24;20392;-82
2022/11/12 11:41:40;;;;;;;7.95;6.00;;;;;;;8.85;87.01;101520.91;5897121;24;20024;-83
2022/11/12 11:44:32;;;;;;;6.90;5.43;;;;;;;8.91;87.12;101516.16;5839830;24;20020;-82
2022/11/12 11:47:30;;;;;;;9.68;5.90;;;;;;;8.94;87.16;101519.56;5836068;24;20035;-83
2022/11/12 11:50:45;;;;;;;7.15;5.75;;;;;;;8.94;87.46;101511.63;5698219;24;20055;-86
2022/11/12 11:53:42;;;;;;;8.05;5.95;;;;;;;8.97;87.52;101506.16;5652686;24;20154;-86
2022/11/12 11:56:31;;;;;;;6.95;5.47;;;;;;;9.02;87.36;101498.81;5741493;24;20102;-86
2022/11/12 11:59:42;;;;;;;8.80;5.85;;;;;;;9.00;87.56;101501.53;5719968;24;20092;-83
2022/11/12 12:03:04;;;;;;;7.47;5.28;;;;;;;9.05;87.32;101501.28;5690862;24;20034;-83
2022/11/12 12:06:24;;;;;;;7.43;5.07;;;;;;;9.06;87.36;101489.75;5674056;24;20972;-84
2022/11/12 12:09:26;;;;;;;8.65;5.72;;;;;;;9.07;87.23;101487.00;5692703;24;20028;-83
2022/11/12 12:12:30;;;;;;;7.50;5.93;;;;;;;9.07;87.28;101487.00;5683966;24;20027;-86
2022/11/12 12:16:04;;;;;;;6.30;5.30;;;;;;;9.07;87.08;101480.84;5716593;24;20118;-84
2022/11/12 12:19:00;;;;;;;6.90;5.13;;;;;;;9.15;87.31;101483.06;5784783;24;20037;-84
2022/11/12 12:21:47;;;;;;;6.65;4.97;;;;;;;9.19;87.48;101482.81;5825885;24;20055;-84
2022/11/12 12:24:56;;;;;;;7.07;5.07;;;;;;;9.16;87.63;101477.69;5974421;23;20019;-83
2022/11/12 12:28:12;;;;;;;8.55;6.40;;;;;;;9.18;87.85;101477.59;5852286;23;20516;-82
2022/11/12 12:31:04;;;;;;;8.15;6.05;;;;;;;9.21;88.18;101467.69;5842857;23;20437;-83
2022/11/12 12:33:53;;;;;;;8.60;6.03;;;;;;;9.24;87.87;101469.31;5892189;23;20486;-86
2022/11/12 12:36:40;;;;;;;8.20;5.82;;;;;;;9.25;87.99;101469.22;5909333;23;20035;-85
2022/11/12 12:39:45;;;;;;;7.88;5.90;;;;;;;9.25;88.10;101460.41;5954033;23;20051;-86
2022/11/12 12:42:53;;;;;;;8.23;6.93;;;;;;;9.22;89.05;101458.78;5898367;23;20020;-85
2022/11/12 12:45:43;;;;;;;8.75;6.20;;;;;;;9.26;88.56;101451.50;5897629;23;20361;-87
2022/11/12 12:48:32;;;;;;;7.13;5.55;;;;;;;9.29;88.61;101457.50;5889777;23;20521;-85
2022/11/12 12:51:18;;;;;;;8.10;5.50;;;;;;;9.31;88.97;101450.31;5916467;23;20036;-85
2022/11/12 12:54:03;;;;;;;8.35;6.30;;;;;;;9.29;89.27;101438.09;5909597;23;20394;-83
2022/11/12 12:56:49;;;;;;;8.15;6.18;;;;;;;9.33;89.27;101434.31;5906316;23;20103;-84
2022/11/12 12:59:34;;;;;;;7.75;6.72;;;;;;;9.33;90.04;101435.16;5934061;23;20357;-84
2022/11/12 13:02:21;;;;;;;9.25;7.55;;;;;;;9.38;89.51;101431.41;5871252;23;20122;-83
2022/11/12 13:05:34;;;;;;;9.65;6.43;;;;;;;9.31;89.53;101429.13;5874985;23;20124;-85
2022/11/12 13:08:22;;;;;;;10.13;8.00;;;;;;;9.34;89.47;101417.47;5859172;23;20026;-85
2022/11/12 13:11:09;;;;;;;7.45;6.13;;;;;;;9.36;89.47;101418.22;5917496;23;20110;-85
2022/11/12 13:13:54;;;;;;;8.38;6.45;;;;;;;9.39;89.74;101414.53;5892297;23;20024;-85
2022/11/12 13:16:49;;;;;;;8.48;6.72;;;;;;;9.38;90.04;101413.69;5909626;23;20102;-82
2022/11/12 13:19:52;;;;;;;8.65;6.32;;;;;;;9.32;90.59;101411.41;5875959;23;20064;-83
2022/11/12 13:22:37;;;;;;;8.82;6.90;;;;;;;9.40;90.50;101413.63;5916045;23;20026;-83
2022/11/12 13:25:29;;;;;;;8.32;6.78;;;;;;;9.42;90.37;101412.56;5868728;23;20024;-85
2022/11/12 13:28:15;;;;;;;9.93;6.80;;;;;;;9.44;90.62;101407.16;5870079;23;20318;-85
2022/11/12 13:31:02;;;;;;;9.07;6.45;;;;;;;9.46;90.89;101413.25;5931165;23;20027;-85
2022/11/12 13:33:47;;;;;;;8.05;6.82;;;;;;;9.46;90.91;101400.84;5887851;23;20019;-85
2022/11/12 13:36:33;;;;;;;9.10;6.57;;;;;;;9.46;91.11;101402.63;5895097;23;20020;-85